Terminal Aerodrome Forecast
Issued by NWS

Home | Current Version | Previous Version | Text Only | Print | Product List | Glossary On
Versions: 1 2 3 4 5 6 7 8 9 10 11 12 13 14 15 16 17 18 19 20 21 22
000
FTUS44 KLIX 062320
TAFHUM
TAF
KHUM 062320Z 0700/0724 VRB04KT P6SM BKN080
     FM070200 02005KT P6SM SCT110 SCT250
     FM072100 31006KT P6SM FEW250
     FM072300 25007KT P6SM FEW250=

USA.gov is the U.S. government's official web portal to all federal, state and local government web resources and services.